N22318 KPDK-KHMP
Flight info
| Callsign | N22318 |
|---|---|
| Flight time | N/A |
| Altitude | 2500 |
| Route | VFR |
| Aircraft | C150/L-VGD/C |
Departure
| Time | 2026-05-05 11:21 |
|---|---|
| Airport | DeKalb Peachtree Airport (KPDK) |
Arrival
| Time | N/A |
|---|---|
| Airport | Atlanta Speedway Airport (KHMP) |
| Time | Latitude | Longitude | Altitude | Speed | Heading |
|---|---|---|---|---|---|
| 2026-05-05 11:14 | 33.88137 | -84.30584 | 998 ft | 0 kts | 67° |
| 2026-05-05 11:16 | 33.88129 | -84.30553 | 998 ft | 12 kts | 144° |
| 2026-05-05 11:16 | 33.88026 | -84.30500 | 994 ft | 15 kts | 157° |
| 2026-05-05 11:17 | 33.87920 | -84.30441 | 989 ft | 18 kts | 158° |
| 2026-05-05 11:17 | 33.87820 | -84.30394 | 988 ft | 6 kts | 158° |
| 2026-05-05 11:17 | 33.87800 | -84.30366 | 988 ft | 5 kts | 78° |
| 2026-05-05 11:17 | 33.87817 | -84.30318 | 988 ft | 7 kts | 67° |
| 2026-05-05 11:18 | 33.87852 | -84.30262 | 991 ft | 10 kts | 44° |
| 2026-05-05 11:18 | 33.87896 | -84.30234 | 990 ft | 1 kts | 2° |
| 2026-05-05 11:19 | 33.87887 | -84.30211 | 988 ft | 8 kts | 149° |
| 2026-05-05 11:19 | 33.87868 | -84.30178 | 983 ft | 0 kts | 110° |
| 2026-05-05 11:20 | 33.87866 | -84.30172 | 982 ft | 5 kts | 110° |
| 2026-05-05 11:20 | 33.87829 | -84.30139 | 984 ft | 10 kts | 199° |
| 2026-05-05 11:20 | 33.87608 | -84.30238 | 990 ft | 59 kts | 200° |
| 2026-05-05 11:20 | 33.87133 | -84.30448 | 1055 ft | 83 kts | 200° |
| 2026-05-05 11:21 | 33.86617 | -84.30683 | 1294 ft | 78 kts | 201° |
| 2026-05-05 11:21 | 33.86111 | -84.30910 | 1493 ft | 78 kts | 194° |
| 2026-05-05 11:21 | 33.85553 | -84.30870 | 1671 ft | 83 kts | 164° |
| 2026-05-05 11:21 | 33.85029 | -84.30579 | 1854 ft | 82 kts | 153° |
| 2026-05-05 11:22 | 33.84531 | -84.30163 | 1957 ft | 89 kts | 152° |
| 2026-05-05 11:22 | 33.84044 | -84.29667 | 2056 ft | 93 kts | 145° |
| 2026-05-05 11:22 | 33.83564 | -84.29139 | 2169 ft | 93 kts | 146° |
| 2026-05-05 11:22 | 33.83078 | -84.28624 | 2278 ft | 95 kts | 145° |
| 2026-05-05 11:23 | 33.82584 | -84.28032 | 2274 ft | 103 kts | 141° |
| 2026-05-05 11:23 | 33.82001 | -84.27593 | 2251 ft | 99 kts | 171° |
| 2026-05-05 11:23 | 33.81336 | -84.27422 | 2284 ft | 96 kts | 174° |
| 2026-05-05 11:23 | 33.80676 | -84.27272 | 2316 ft | 98 kts | 175° |
| 2026-05-05 11:24 | 33.80034 | -84.27135 | 2394 ft | 91 kts | 182° |
| 2026-05-05 11:24 | 33.79426 | -84.27208 | 2488 ft | 84 kts | 194° |
| 2026-05-05 11:24 | 33.78828 | -84.27354 | 2490 ft | 91 kts | 197° |
| 2026-05-05 11:24 | 33.78211 | -84.27569 | 2468 ft | 95 kts | 201° |
| 2026-05-05 11:25 | 33.77608 | -84.27873 | 2464 ft | 93 kts | 210° |
| 2026-05-05 11:25 | 33.77089 | -84.28329 | 2451 ft | 93 kts | 226° |
| 2026-05-05 11:25 | 33.76726 | -84.28978 | 2443 ft | 94 kts | 238° |
| 2026-05-05 11:25 | 33.76435 | -84.29682 | 2418 ft | 95 kts | 241° |
| 2026-05-05 11:26 | 33.76157 | -84.30398 | 2401 ft | 94 kts | 242° |
| 2026-05-05 11:26 | 33.75886 | -84.31103 | 2416 ft | 92 kts | 241° |
| 2026-05-05 11:26 | 33.75598 | -84.31795 | 2407 ft | 93 kts | 241° |
| 2026-05-05 11:26 | 33.75312 | -84.32502 | 2415 ft | 93 kts | 241° |
| 2026-05-05 11:27 | 33.75053 | -84.33185 | 2476 ft | 90 kts | 243° |
| 2026-05-05 11:27 | 33.74788 | -84.33882 | 2451 ft | 93 kts | 241° |
| 2026-05-05 11:27 | 33.74516 | -84.34584 | 2448 ft | 93 kts | 243° |
| 2026-05-05 11:27 | 33.74262 | -84.35294 | 2449 ft | 92 kts | 243° |
| 2026-05-05 11:28 | 33.74008 | -84.36000 | 2451 ft | 92 kts | 244° |
| 2026-05-05 11:28 | 33.73767 | -84.36714 | 2458 ft | 92 kts | 245° |
| 2026-05-05 11:28 | 33.73560 | -84.37450 | 2461 ft | 93 kts | 250° |
| 2026-05-05 11:28 | 33.73410 | -84.38203 | 2484 ft | 92 kts | 252° |
| 2026-05-05 11:29 | 33.73187 | -84.38919 | 2479 ft | 92 kts | 239° |
| 2026-05-05 11:29 | 33.72823 | -84.39544 | 2473 ft | 90 kts | 226° |
| 2026-05-05 11:29 | 33.72330 | -84.40009 | 2477 ft | 91 kts | 210° |
| 2026-05-05 11:29 | 33.71735 | -84.40279 | 2464 ft | 93 kts | 197° |
| 2026-05-05 11:30 | 33.71096 | -84.40393 | 2459 ft | 93 kts | 189° |
| 2026-05-05 11:30 | 33.70449 | -84.40429 | 2476 ft | 93 kts | 186° |
| 2026-05-05 11:30 | 33.69803 | -84.40462 | 2489 ft | 93 kts | 187° |
| 2026-05-05 11:30 | 33.69151 | -84.40492 | 2506 ft | 94 kts | 187° |
| 2026-05-05 11:31 | 33.68495 | -84.40512 | 2505 ft | 94 kts | 185° |
| 2026-05-05 11:31 | 33.67844 | -84.40523 | 2516 ft | 93 kts | 185° |
| 2026-05-05 11:31 | 33.67199 | -84.40529 | 2484 ft | 94 kts | 184° |
| 2026-05-05 11:31 | 33.66543 | -84.40528 | 2448 ft | 94 kts | 187° |
| 2026-05-05 11:32 | 33.66115 | -84.40575 | 2438 ft | 93 kts | 191° |
| 2026-05-05 11:32 | 33.65524 | -84.40675 | 2495 ft | 89 kts | 193° |
| 2026-05-05 11:33 | 33.64910 | -84.40823 | 2458 ft | 94 kts | 195° |
| 2026-05-05 11:33 | 33.64277 | -84.40992 | 2482 ft | 92 kts | 196° |
| 2026-05-05 11:33 | 33.63652 | -84.41156 | 2476 ft | 93 kts | 195° |
| 2026-05-05 11:33 | 33.63019 | -84.41315 | 2482 ft | 93 kts | 195° |
| 2026-05-05 11:34 | 33.62385 | -84.41454 | 2494 ft | 93 kts | 193° |
| 2026-05-05 11:34 | 33.61742 | -84.41552 | 2474 ft | 94 kts | 190° |
| 2026-05-05 11:34 | 33.61096 | -84.41622 | 2492 ft | 94 kts | 188° |
| 2026-05-05 11:34 | 33.60441 | -84.41670 | 2491 ft | 94 kts | 187° |
| 2026-05-05 11:35 | 33.59785 | -84.41706 | 2501 ft | 94 kts | 186° |
| 2026-05-05 11:35 | 33.59130 | -84.41726 | 2503 ft | 94 kts | 185° |
| 2026-05-05 11:35 | 33.58473 | -84.41716 | 2501 ft | 95 kts | 184° |
| 2026-05-05 11:35 | 33.57815 | -84.41704 | 2518 ft | 94 kts | 185° |
| 2026-05-05 11:36 | 33.57161 | -84.41741 | 2516 ft | 95 kts | 187° |